Time;durP1;ratioP1;P1;durP2;ratioP2;P2;SDS_P1;SDS_P2;PMS_P1;PMS_P2;Temp;Humidity;BMP_temperature;BMP_pressure;BME280_temperature;BME280_humidity;BME280_pressure;Samples;Min_cycle;Max_cycle;Signal;HPM_P1;HPM_P2
2022/11/05 00:16:43;;;;;;;5.95;4.85;;;14.10;63.20;;;13.04;62.30;100631.38;12141585;19;20026;-89
2022/11/05 00:20:45;;;;;;;7.18;4.93;;;14.10;63.10;;;13.04;62.12;100628.75;12147623;19;20030;-89
2022/11/05 00:29:06;;;;;;;6.97;5.60;;;14.10;63.00;;;13.11;62.35;100652.78;12149621;19;20500;-89
2022/11/05 00:33:08;;;;;;;6.32;5.25;;;14.10;63.10;;;13.04;62.28;100649.72;12114401;19;20015;-89
2022/11/05 00:37:10;;;;;;;5.38;4.88;;;14.10;63.90;;;13.08;62.44;100659.06;12094788;19;20624;-89
2022/11/05 00:41:12;;;;;;;7.82;5.45;;;14.10;63.20;;;13.12;62.38;100668.41;12094883;19;20878;-88
2022/11/05 00:45:14;;;;;;;5.47;4.75;;;14.40;63.40;;;13.14;62.42;100671.75;12094749;19;20461;-89
2022/11/05 00:49:31;;;;;;;4.72;4.30;;;14.10;63.30;;;12.88;62.29;100642.06;12090369;19;20397;-88
2022/11/05 00:53:33;;;;;;;5.32;4.68;;;14.10;63.30;;;12.82;62.33;100638.03;12093873;19;20494;-89
2022/11/05 00:57:35;;;;;;;4.85;4.32;;;14.00;63.40;;;13.02;62.46;100680.47;12093440;19;20015;-89
2022/11/05 01:01:37;;;;;;;5.78;3.85;;;14.00;63.40;;;12.75;62.35;100642.03;12097611;19;20026;-89
2022/11/05 01:05:48;;;;;;;4.18;3.78;;;14.00;63.50;;;12.87;62.36;100665.72;12093555;19;20474;-89
2022/11/05 01:09:50;;;;;;;4.75;3.53;;;14.00;63.70;;;13.02;62.45;100701.44;12098031;19;20810;-89
2022/11/05 01:13:52;;;;;;;4.63;3.90;;;14.00;63.60;;;12.99;62.46;100696.41;12093867;19;20023;-89
2022/11/05 01:17:53;;;;;;;3.38;3.08;;;14.00;63.60;;;12.93;62.43;100691.53;12092913;19;20013;-89
2022/11/05 01:21:55;;;;;;;3.92;3.58;;;14.00;63.60;;;12.71;62.47;100651.00;12098288;19;20609;-90
2022/11/05 01:25:57;;;;;;;3.63;3.20;;;14.00;63.70;;;12.73;62.72;100667.47;12091623;19;20397;-90
2022/11/05 01:29:59;;;;;;;4.03;2.97;;;14.10;63.80;;;12.77;62.53;100673.34;12106079;19;20022;-89
2022/11/05 01:34:01;;;;;;;4.20;2.78;;;13.90;63.60;;;12.69;62.52;100657.28;12106186;19;20402;-90
2022/11/05 01:38:03;;;;;;;2.83;2.55;;;14.30;64.00;;;12.89;62.52;100695.31;12108427;19;20014;-89
2022/11/05 01:42:21;;;;;;;3.28;2.95;;;14.00;63.70;;;12.96;62.55;100717.53;12111247;19;20812;-89
2022/11/05 01:46:53;;;;;;;2.47;2.28;;;14.00;63.60;;;13.02;62.48;100723.25;12110660;19;20411;-89
2022/11/05 01:50:59;;;;;;;3.30;2.13;;;14.00;63.60;;;12.92;62.47;100713.47;12111540;19;20298;-89
2022/11/05 01:55:03;;;;;;;2.70;1.80;;;14.00;63.50;;;13.01;62.61;100724.16;12119824;19;20018;-89
2022/11/05 01:59:19;;;;;;;3.20;2.20;;;13.90;63.40;;;12.99;62.54;100714.75;12161073;19;20817;-89
2022/11/05 02:03:22;;;;;;;2.00;1.83;;;14.00;63.50;;;13.02;62.70;100725.03;12160107;19;20911;-89
2022/11/05 02:07:26;;;;;;;2.65;2.45;;;14.00;63.40;;;12.89;62.61;100708.41;12157662;19;20027;-89
2022/11/05 02:11:28;;;;;;;2.60;2.00;;;14.10;63.50;;;12.89;62.44;100716.28;12134862;19;20778;-89
2022/11/05 02:15:49;;;;;;;2.33;2.13;;;14.00;63.40;;;12.93;62.45;100730.84;12134379;19;20452;-89
2022/11/05 02:20:15;;;;;;;2.22;1.88;;;14.00;63.40;;;12.97;62.46;100745.47;12154378;19;20014;-89
2022/11/05 02:24:44;;;;;;;2.30;2.05;;;14.00;64.00;;;13.00;62.46;100761.81;12157944;19;20827;-89
2022/11/05 02:29:17;;;;;;;2.10;1.98;;;14.00;63.40;;;12.99;62.62;100765.38;12161984;19;20448;-89
2022/11/05 02:33:25;;;;;;;2.28;2.08;;;14.00;63.30;;;12.90;62.57;100745.00;12163139;19;20022;-89
2022/11/05 02:37:40;;;;;;;1.88;1.52;;;13.90;63.30;;;13.01;62.52;100768.72;12127445;19;20023;-89
2022/11/05 02:42:09;;;;;;;2.67;2.43;;;14.00;63.50;;;13.01;62.62;100778.38;12107441;19;20395;-89
2022/11/05 02:46:32;;;;;;;2.50;2.17;;;14.00;63.30;;;13.00;62.56;100782.78;12122667;19;20429;-90
2022/11/05 02:51:03;;;;;;;2.63;2.25;;;14.00;63.30;;;13.00;62.65;100788.03;12160164;19;20015;-89
2022/11/05 02:55:43;;;;;;;3.70;2.40;;;14.20;63.40;;;12.95;62.77;100800.59;12160394;19;20032;-89
2022/11/05 02:59:45;;;;;;;3.70;2.63;;;14.00;63.20;;;12.99;62.63;100796.00;12159328;19;20369;-89
2022/11/05 03:03:59;;;;;;;2.70;2.38;;;14.00;63.00;;;12.95;62.63;100794.50;12161943;19;20415;-89
2022/11/05 03:08:15;;;;;;;2.42;2.22;;;14.00;63.20;;;12.94;62.52;100798.91;12160059;19;20031;-89
2022/11/05 03:12:45;;;;;;;;;;;14.00;63.10;;;12.81;62.59;100804.09;12161128;19;20010;-89
2022/11/05 03:17:44;;;;;;;2.60;1.92;;;14.00;62.70;;;12.87;62.68;100828.22;12160032;19;20194;-88
2022/11/05 03:22:03;;;;;;;3.75;2.00;;;13.90;62.80;;;12.76;62.71;100818.41;12148769;19;20022;-89
2022/11/05 03:26:20;;;;;;;2.20;2.05;;;13.80;62.70;;;12.56;62.57;100788.25;12159410;19;20506;-88
2022/11/05 03:30:24;;;;;;;2.78;2.40;;;13.90;63.00;;;12.51;62.67;100782.44;12159752;19;20508;-91
2022/11/05 03:34:39;;;;;;;2.55;2.33;;;13.80;62.90;;;12.77;62.56;100834.06;12151988;19;20112;-91
2022/11/05 03:38:51;;;;;;;2.58;2.25;;;13.80;63.00;;;12.74;62.54;100833.38;11960198;19;3737910;-90
2022/11/05 03:42:56;;;;;;;3.03;2.10;;;13.90;63.00;;;12.75;62.76;100843.78;12158674;19;20125;-90
2022/11/05 03:47:10;;;;;;;2.47;2.28;;;13.80;63.00;;;12.54;62.65;100811.06;12158650;19;20010;-90
2022/11/05 03:51:50;;;;;;;2.65;2.45;;;13.80;62.90;;;12.81;62.55;100866.16;12159541;19;20421;-90
2022/11/05 03:56:41;;;;;;;2.60;2.22;;;13.80;62.90;;;12.43;62.62;100809.09;12160237;19;20022;-91
2022/11/05 04:00:44;;;;;;;2.60;2.40;;;13.80;62.80;;;12.73;62.62;100842.19;12156001;19;20029;-91
2022/11/05 04:04:45;;;;;;;3.45;2.38;;;14.10;62.90;;;12.55;62.63;100828.44;12160206;19;20014;-90
2022/11/05 04:13:25;;;;;;;2.50;2.13;;;13.80;62.30;;;12.59;62.73;100866.63;12157687;19;20015;-90
2022/11/05 04:17:27;;;;;;;5.13;2.40;;;13.70;62.30;;;12.31;62.71;100841.28;12163914;19;20331;-90
2022/11/05 04:25:53;;;;;;;3.33;3.03;;;13.60;62.30;;;12.13;62.58;100814.44;12158610;19;20369;-91
2022/11/05 04:34:20;;;;;;;4.65;2.55;;;13.70;62.30;;;12.09;62.59;100805.06;12160035;19;20862;-91
2022/11/05 04:38:22;;;;;;;3.93;2.60;;;13.80;62.40;;;12.11;62.61;100822.38;12161573;19;20019;-90
2022/11/05 04:42:29;;;;;;;2.83;2.55;;;13.90;62.40;;;11.92;62.63;100796.47;12166531;19;20035;-90
2022/11/05 04:46:32;;;;;;;3.10;2.80;;;13.80;62.30;;;12.16;62.54;100850.91;12166581;19;20022;-89
2022/11/05 04:50:36;;;;;;;3.15;2.85;;;13.60;61.90;;;12.14;62.41;100832.66;12165329;19;20011;-90
2022/11/05 04:54:40;;;;;;;4.45;2.70;;;13.50;61.80;;;12.21;62.45;100869.81;12165286;19;20026;-90
2022/11/05 04:58:47;;;;;;;3.00;2.65;;;13.80;62.10;;;12.08;62.47;100847.91;12167541;19;20608;-92
2022/11/05 05:02:54;;;;;;;2.47;2.25;;;13.60;62.00;;;12.30;62.44;100891.97;12162536;19;20019;-89
2022/11/05 05:07:05;;;;;;;4.93;2.42;;;13.50;62.10;;;12.24;62.55;100882.69;12175395;19;20014;-91
2022/11/05 05:11:13;;;;;;;5.68;2.40;;;13.30;62.00;;;12.41;62.64;100913.13;12175135;19;20033;-90
2022/11/05 05:15:23;;;;;;;3.60;2.78;;;13.60;62.10;;;11.93;62.54;100842.63;12173305;19;20379;-91
2022/11/05 05:19:30;;;;;;;3.10;2.80;;;13.40;62.10;;;11.94;62.55;100857.41;12166406;19;20019;-91
2022/11/05 05:23:37;;;;;;;9.07;3.22;;;13.70;62.30;;;11.77;62.35;100835.75;12167658;19;20053;-91
2022/11/05 05:27:42;;;;;;;4.15;3.03;;;13.30;61.80;;;11.83;62.32;100858.94;12160990;19;20018;-91
2022/11/05 05:31:46;;;;;;;3.78;3.08;;;13.20;62.00;;;11.88;62.55;100873.47;12160867;19;20026;-91
2022/11/05 05:35:49;;;;;;;3.03;2.63;;;13.50;62.20;;;11.90;62.36;100886.44;12163486;19;20024;-90
2022/11/05 05:39:58;;;;;;;3.00;2.63;;;13.30;62.10;;;11.88;62.53;100883.06;12155031;19;20022;-91
2022/11/05 05:44:27;;;;;;;3.75;2.60;;;13.40;62.10;;;11.82;62.41;100897.31;12163394;19;20029;-91
2022/11/05 05:48:53;;;;;;;3.92;2.65;;;13.30;61.90;;;11.78;62.53;100895.84;12154181;19;20019;-89
2022/11/05 05:52:54;;;;;;;5.93;2.72;;;13.20;61.80;;;12.01;62.60;100944.25;12162416;19;20445;-91
2022/11/05 06:27:01;;;;;;;4.47;2.47;;;13.00;61.90;;;11.93;62.54;101028.44;12187964;19;20010;-94
2022/11/05 06:31:03;;;;;;;3.75;2.25;;;13.00;62.10;;;11.61;62.57;100979.63;12221462;19;20023;-91
2022/11/05 06:35:05;;;;;;;4.25;2.55;;;12.90;62.00;;;11.60;62.47;100994.50;12174482;19;20042;-92
2022/11/05 06:39:11;;;;;;;3.78;1.88;;;12.90;62.10;;;11.54;62.53;100999.22;12183832;19;20098;-93
2022/11/05 06:43:12;;;;;;;3.03;2.28;;;12.90;62.10;;;11.88;62.52;101066.25;12172645;19;20282;-93
2022/11/05 06:47:14;;;;;;;3.50;2.47;;;12.90;62.00;;;11.61;62.63;101035.44;12179687;19;20014;-92
2022/11/05 06:51:15;;;;;;;2.67;2.30;;;13.00;62.10;;;11.82;62.72;101077.88;12160254;19;20026;-92
2022/11/05 06:55:17;;;;;;;4.20;2.38;;;12.90;62.10;;;11.76;62.70;101075.59;12154030;19;20014;-91
2022/11/05 06:59:18;;;;;;;3.17;2.17;;;12.80;62.00;;;11.58;62.76;101042.59;12171074;19;20474;-93
2022/11/05 07:03:20;;;;;;;4.15;1.77;;;12.80;62.10;;;11.74;62.74;101074.84;12159334;19;20022;-90
2022/11/05 07:07:22;;;;;;;5.22;2.33;;;12.80;62.00;;;11.75;62.74;101087.00;12157765;19;20018;-93
2022/11/05 07:11:23;;;;;;;4.22;2.05;;;12.70;62.10;;;11.62;62.48;101084.19;12156739;19;20030;-92
2022/11/05 07:15:25;;;;;;;3.75;1.95;;;12.70;62.10;;;11.60;62.65;101077.38;12155247;19;20038;-93
2022/11/05 07:19:26;;;;;;;2.33;1.90;;;12.70;62.20;;;11.68;62.59;101103.94;12153837;19;20749;-92
2022/11/05 07:23:28;;;;;;;3.42;2.70;;;12.70;62.20;;;11.60;62.71;101087.81;12161155;19;21030;-89
2022/11/05 07:27:29;;;;;;;3.00;1.85;;;12.70;62.20;;;11.29;62.75;101039.78;12160564;19;20853;-87
2022/11/05 07:31:31;;;;;;;3.03;2.33;;;12.70;62.20;;;11.37;62.75;101061.13;12158164;19;20018;-89
2022/11/05 07:35:33;;;;;;;2.53;1.85;;;12.70;62.20;;;11.55;62.56;101093.28;12157611;19;20353;-89
2022/11/05 07:39:34;;;;;;;3.83;1.85;;;12.60;62.30;;;11.61;62.63;101116.53;12153029;19;20070;-88
2022/11/05 07:43:36;;;;;;;4.75;1.92;;;12.70;62.30;;;11.34;62.75;101079.59;12156424;19;20026;-88
2022/11/05 07:47:50;;;;;;;4.43;1.67;;;12.60;62.20;;;11.59;62.57;101134.06;12153771;19;20023;-88
2022/11/05 07:51:52;;;;;;;3.08;1.98;;;12.90;62.40;;;11.50;62.63;101124.06;12156812;19;20474;-87
2022/11/05 07:55:56;;;;;;;2.45;1.92;;;12.60;62.20;;;11.59;62.67;101130.63;12155897;19;20022;-89
2022/11/05 07:59:57;;;;;;;2.30;2.10;;;12.60;62.30;;;11.57;62.79;101141.13;12155350;19;20387;-87
2022/11/05 08:03:59;;;;;;;4.00;2.45;;;12.60;62.50;;;11.36;62.67;101108.28;12156057;19;20383;-88
2022/11/05 08:08:01;;;;;;;5.00;2.55;;;12.60;62.70;;;11.58;62.75;101144.59;12159733;19;20135;-87
2022/11/05 08:12:03;;;;;;;3.47;2.53;;;12.60;62.70;;;11.55;62.91;101156.06;12152030;19;20585;-89
2022/11/05 08:16:06;;;;;;;3.65;2.15;;;12.60;62.90;;;11.35;62.81;101128.34;12156440;19;20086;-89
2022/11/05 08:20:09;;;;;;;3.20;2.42;;;12.60;63.10;;;11.63;63.05;101168.75;12154748;19;20110;-89
2022/11/05 08:24:11;;;;;;;4.72;2.75;;;12.60;63.30;;;11.60;63.07;101153.22;12154216;19;20036;-89
2022/11/05 08:28:12;;;;;;;4.32;2.92;;;12.60;63.50;;;11.60;62.98;101154.06;12156146;19;20809;-89
2022/11/05 08:32:15;;;;;;;3.55;2.42;;;12.70;63.50;;;11.62;62.96;101160.06;12148015;19;20039;-91
2022/11/05 08:36:16;;;;;;;3.33;2.45;;;12.70;63.60;;;11.48;63.02;101139.88;12149404;19;20359;-90
2022/11/05 08:40:18;;;;;;;6.63;2.42;;;12.80;63.80;;;11.18;62.92;101083.91;12149453;19;20869;-89
2022/11/05 08:44:21;;;;;;;3.42;2.20;;;13.00;63.90;;;11.78;63.13;101186.25;12161223;19;20311;-88
2022/11/05 08:48:22;;;;;;;3.22;2.55;;;12.80;63.70;;;11.72;63.02;101163.03;12158763;19;20014;-88
2022/11/05 08:52:23;;;;;;;6.28;3.05;;;13.00;63.90;;;11.81;62.94;101183.47;12163160;19;20505;-89
2022/11/05 08:56:25;;;;;;;2.80;2.35;;;13.00;64.00;;;11.83;63.19;101186.03;12157565;19;20018;-89
2022/11/05 09:00:32;;;;;;;3.38;3.05;;;13.00;64.10;;;11.69;63.11;101164.06;12164983;19;20295;-89
2022/11/05 09:04:34;;;;;;;3.45;2.55;;;12.90;63.90;;;11.83;63.16;101188.66;12166240;19;20427;-90
2022/11/05 09:08:35;;;;;;;5.10;3.58;;;13.00;64.00;;;11.96;63.07;101210.63;12162421;19;20011;-90
2022/11/05 09:12:37;;;;;;;4.75;2.83;;;13.20;64.00;;;11.85;63.39;101189.38;12166449;19;20029;-89
2022/11/05 09:16:41;;;;;;;3.35;2.88;;;13.00;63.70;;;11.74;63.23;101179.47;12163987;19;20022;-91
2022/11/05 09:20:43;;;;;;;5.55;3.40;;;13.30;64.00;;;12.03;63.24;101232.09;12165286;19;20014;-90
2022/11/05 09:24:45;;;;;;;4.72;2.88;;;13.10;63.80;;;12.07;63.18;101228.38;12167686;19;20298;-93
2022/11/05 09:28:47;;;;;;;4.10;2.80;;;13.40;64.10;;;11.79;63.32;101185.31;12160947;19;20026;-91
2022/11/05 09:32:49;;;;;;;3.15;2.40;;;13.30;64.50;;;11.89;63.54;101189.19;12162898;19;20029;-91
2022/11/05 09:36:50;;;;;;;3.72;2.45;;;13.40;65.00;;;11.78;63.44;101151.41;12157777;19;20106;-90
2022/11/05 09:41:16;;;;;;;3.80;2.95;;;13.30;64.60;;;11.97;63.22;101187.94;12159983;19;20011;-91
2022/11/05 09:45:25;;;;;;;4.82;2.65;;;13.60;64.20;;;12.42;63.40;101242.19;12158873;19;20454;-90
2022/11/05 09:49:49;;;;;;;2.83;2.40;;;13.50;64.00;;;12.21;63.52;101202.31;12154882;19;20125;-91
2022/11/05 09:53:52;;;;;;;3.72;2.97;;;13.60;64.00;;;12.50;63.38;101229.53;12157431;19;20364;-92
2022/11/05 09:58:02;;;;;;;3.25;2.28;;;13.90;64.20;;;12.74;63.39;101252.66;12156611;19;20062;-92
2022/11/05 10:02:54;;;;;;;4.45;2.60;;;13.80;64.10;;;12.55;63.72;101218.78;12159877;19;20889;-90
2022/11/05 10:07:03;;;;;;;4.10;1.92;;;14.10;64.40;;;12.76;63.66;101222.81;12159963;19;20018;-90
2022/11/05 10:11:27;;;;;;;6.18;2.28;;;14.30;64.50;;;12.83;63.78;101216.31;12163537;19;20117;-89
2022/11/05 10:15:41;;;;;;;3.90;2.10;;;14.20;64.00;;;13.15;63.64;101252.97;12153395;19;20305;-89
2022/11/05 10:20:16;;;;;;;5.95;2.42;;;14.40;63.40;;;13.20;63.76;101250.06;12157497;19;20022;-90
2022/11/05 10:24:20;;;;;;;3.25;2.10;;;14.50;63.50;;;13.35;63.83;101253.63;12151715;19;20496;-90
2022/11/05 10:28:26;;;;;;;3.75;2.10;;;14.60;62.90;;;13.23;63.60;101219.28;12157911;19;20018;-90
2022/11/05 10:32:39;;;;;;;4.05;2.15;;;14.70;62.60;;;13.45;63.65;101252.16;12157144;19;20022;-90
2022/11/05 10:36:42;;;;;;;2.80;1.92;;;14.80;62.30;;;13.63;63.56;101272.03;12156659;19;20040;-89
2022/11/05 10:41:13;;;;;;;5.50;2.05;;;14.80;62.00;;;13.66;63.51;101285.00;12151652;19;20464;-91
2022/11/05 10:46:15;;;;;;;3.53;1.63;;;14.90;61.80;;;13.59;63.39;101283.66;12153377;19;20015;-91
2022/11/05 10:50:23;;;;;;;3.90;1.75;;;14.90;61.50;;;13.57;63.50;101268.94;12151796;19;20587;-91
2022/11/05 10:54:36;;;;;;;2.25;1.52;;;14.90;61.60;;;13.64;63.43;101279.00;12158780;19;20019;-90
2022/11/05 10:58:54;;;;;;;3.17;1.58;;;15.10;61.50;;;13.59;63.31;101262.66;12155158;19;20424;-91
2022/11/05 11:03:01;;;;;;;1.85;1.30;;;14.90;61.10;;;13.81;63.33;101295.50;12161222;19;20358;-88
2022/11/05 11:07:03;;;;;;;3.42;1.40;;;15.00;60.80;;;13.81;63.30;101290.25;12159882;19;20464;-88
2022/11/05 11:11:10;;;;;;;6.20;1.40;;;15.00;60.70;;;13.75;63.07;101282.75;12160094;19;20018;-90
2022/11/05 11:15:26;;;;;;;3.05;1.50;;;15.20;60.80;;;13.82;63.17;101290.16;12158708;19;20868;-89
2022/11/05 11:19:30;;;;;;;2.90;1.30;;;15.20;60.30;;;13.72;63.07;101268.03;12157807;19;20042;-87
2022/11/05 11:23:40;;;;;;;2.47;1.25;;;15.10;59.90;;;13.65;62.97;101275.41;12160517;19;20383;-89
2022/11/05 11:27:41;;;;;;;3.25;0.80;;;15.00;59.40;;;13.82;63.08;101300.66;12155364;19;20387;-90
2022/11/05 11:31:43;;;;;;;1.65;1.25;;;15.00;59.60;;;13.80;62.87;101291.19;12164649;19;20018;-89
2022/11/05 11:35:45;;;;;;;3.67;1.30;;;15.20;59.50;;;13.74;62.70;101276.63;12164743;19;20098;-87
2022/11/05 11:39:53;;;;;;;2.95;1.13;;;15.00;59.40;;;13.91;62.83;101299.28;12166233;19;20021;-89
2022/11/05 11:44:06;;;;;;;4.03;1.08;;;15.10;59.40;;;13.93;62.86;101293.00;12166520;19;20019;-90
2022/11/05 11:48:28;;;;;;;1.92;1.15;;;15.10;59.30;;;13.86;62.59;101272.47;12153853;19;20015;-90
2022/11/05 11:52:34;;;;;;;6.70;1.20;;;15.10;59.00;;;13.93;62.59;101271.13;12157749;19;20047;-90
2022/11/05 11:56:45;;;;;;;3.55;1.10;;;15.10;59.10;;;14.01;62.55;101276.75;12159600;19;20014;-91
2022/11/05 12:01:31;;;;;;;2.55;1.08;;;15.40;58.70;;;14.13;62.41;101297.03;12158880;19;20037;-92
2022/11/05 12:05:50;;;;;;;2.15;0.85;;;15.30;58.40;;;14.03;62.30;101272.25;12157564;19;20139;-91
2022/11/05 12:09:58;;;;;;;1.67;0.93;;;15.30;58.50;;;14.26;62.44;101299.78;12156136;19;20011;-91
2022/11/05 12:14:20;;;;;;;4.85;0.93;;;15.40;58.40;;;14.30;62.13;101308.28;12157840;19;20430;-88
2022/11/05 12:18:43;;;;;;;2.15;1.00;;;15.40;58.00;;;14.22;62.20;101285.13;12160691;19;20296;-91
2022/11/05 12:23:52;;;;;;;3.10;1.08;;;15.50;58.20;;;14.34;62.26;101297.50;12159491;19;20114;-90
2022/11/05 12:28:53;;;;;;;2.80;1.10;;;15.50;57.90;;;13.96;62.06;101228.97;12159883;19;20024;-91
2022/11/05 12:33:48;;;;;;;2.05;0.90;;;15.60;57.60;;;14.04;61.87;101252.09;12149633;19;20031;-91
2022/11/05 12:38:10;;;;;;;2.30;0.90;;;15.60;57.50;;;14.35;62.00;101290.47;12153514;19;20675;-90
2022/11/05 12:43:11;;;;;;;0.90;0.60;;;15.60;57.20;;;14.48;61.97;101307.16;12155291;19;20415;-89
2022/11/05 12:47:56;;;;;;;2.50;0.80;;;15.60;57.70;;;14.52;61.80;101315.69;12167314;19;21022;-92
2022/11/05 12:52:33;;;;;;;1.20;0.80;;;15.70;57.20;;;14.36;61.57;101292.16;12156484;19;20026;-93
2022/11/05 12:56:59;;;;;;;2.25;1.33;;;15.70;57.10;;;14.45;61.49;101298.63;12165908;19;20109;-92
2022/11/05 13:01:13;;;;;;;;;;;15.70;57.10;;;14.44;61.60;101297.75;12150370;19;20035;-91
2022/11/05 13:05:35;;;;;;;3.60;0.90;;;15.90;57.90;;;14.50;61.34;101307.06;12149830;19;19919;-91
2022/11/05 13:09:49;;;;;;;1.67;0.75;;;15.70;56.80;;;14.13;61.36;101262.91;12146874;19;20043;-92
2022/11/05 13:14:16;;;;;;;4.85;1.35;;;15.60;56.90;;;14.32;61.32;101301.16;12148426;19;20295;-92
2022/11/05 13:18:26;;;;;;;1.35;0.80;;;15.60;56.80;;;14.48;61.18;101309.78;12139562;19;20022;-91
2022/11/05 13:22:41;;;;;;;2.53;1.00;;;15.80;56.80;;;14.48;61.36;101325.56;12151882;19;20407;-90
2022/11/05 13:26:54;;;;;;;1.05;0.80;;;15.60;56.80;;;14.42;61.08;101318.06;12177624;19;20845;-91
2022/11/05 13:31:02;;;;;;;3.35;1.00;;;15.80;56.70;;;13.96;61.09;101244.72;12179948;19;20019;-89
2022/11/05 13:35:13;;;;;;;0.60;0.60;;;15.80;56.70;;;14.45;61.13;101323.13;12167355;19;20483;-89
2022/11/05 13:39:34;;;;;;;3.90;0.90;;;15.60;56.50;;;14.26;60.96;101305.03;12166321;19;20379;-91
2022/11/05 13:44:00;;;;;;;1.80;0.75;;;15.80;56.40;;;14.54;60.97;101334.88;12170765;19;20393;-90
2022/11/05 13:48:33;;;;;;;2.20;0.70;;;15.60;56.30;;;14.56;60.70;101347.00;12164380;19;20290;-91
2022/11/05 13:53:05;;;;;;;0.80;0.60;;;15.70;56.40;;;14.35;60.73;101306.22;12171585;19;20022;-89
2022/11/05 13:57:30;;;;;;;1.90;0.88;;;15.70;56.50;;;14.57;60.80;101346.03;12165237;19;20372;-90
2022/11/05 14:01:57;;;;;;;0.70;0.70;;;15.70;56.30;;;14.46;60.71;101337.09;12167047;19;20466;-91
2022/11/05 14:06:05;;;;;;;1.90;0.95;;;15.70;56.40;;;14.56;60.67;101354.88;12167360;19;20023;-90
2022/11/05 14:10:37;;;;;;;1.80;0.95;;;15.80;56.30;;;14.50;60.40;101344.72;12160055;19;20439;-92
2022/11/05 14:14:47;;;;;;;2.50;0.90;;;15.70;56.20;;;14.20;60.67;101294.03;12163362;19;20014;-92
2022/11/05 14:19:11;;;;;;;0.88;0.73;;;15.80;56.40;;;14.14;60.56;101276.88;12162399;19;20079;-89
2022/11/05 14:23:22;;;;;;;1.00;0.68;;;15.70;56.40;;;14.64;60.44;101358.81;12167497;19;20011;-89
2022/11/05 14:27:35;;;;;;;0.80;0.77;;;15.80;56.40;;;14.63;60.29;101365.00;12168858;19;20022;-90
2022/11/05 14:31:48;;;;;;;1.35;1.25;;;15.70;56.20;;;14.59;60.38;101366.97;12169695;19;20018;-87
2022/11/05 14:36:09;;;;;;;1.75;0.85;;;15.70;56.10;;;14.56;60.23;101361.91;12162569;19;20372;-90
2022/11/05 14:40:37;;;;;;;2.17;0.90;;;15.60;55.90;;;14.44;60.18;101352.94;12155081;19;20475;-90
2022/11/05 14:45:13;;;;;;;1.67;0.82;;;15.60;56.20;;;14.48;60.15;101375.50;12162931;19;21109;-90
2022/11/05 14:49:26;;;;;;;;;;;15.60;55.90;;;14.39;60.35;101373.41;12160029;19;20022;-91
2022/11/05 14:53:37;;;;;;;4.95;1.50;;;15.60;56.90;;;14.42;60.17;101383.75;12155587;19;20444;-90
2022/11/05 14:57:41;;;;;;;1.80;1.02;;;15.40;56.10;;;14.34;60.26;101388.63;12160190;19;20022;-91
2022/11/05 15:01:46;;;;;;;3.45;1.15;;;15.50;56.20;;;14.35;60.09;101387.69;12162022;19;20110;-90
2022/11/05 15:05:49;;;;;;;1.63;1.38;;;15.40;56.40;;;14.34;60.14;101396.50;12164022;19;20029;-90
2022/11/05 15:09:53;;;;;;;1.92;1.23;;;15.30;56.40;;;14.21;60.05;101385.06;12160388;19;20018;-90
2022/11/05 15:13:54;;;;;;;1.90;0.95;;;15.30;56.40;;;14.28;60.07;101407.38;12158270;19;20310;-90
2022/11/05 15:18:42;;;;;;;1.13;1.10;;;15.40;56.70;;;14.02;59.70;101374.78;12156351;19;20014;-91
2022/11/05 15:22:51;;;;;;;3.95;1.27;;;15.30;56.80;;;14.24;59.98;101403.25;12161916;19;20014;-90
2022/11/05 15:27:48;;;;;;;1.70;1.20;;;15.50;57.00;;;14.11;59.90;101396.09;12158762;19;20022;-91
2022/11/05 15:31:51;;;;;;;2.87;1.40;;;15.20;56.80;;;14.07;60.07;101391.97;12160905;19;20292;-90
2022/11/05 15:35:54;;;;;;;3.10;1.73;;;15.40;57.10;;;13.94;60.03;101377.88;12155944;19;20282;-90
2022/11/05 15:39:56;;;;;;;5.30;2.70;;;15.10;56.80;;;13.64;59.91;101335.88;12143579;19;20595;-91
2022/11/05 15:44:01;;;;;;;3.45;2.60;;;15.30;56.80;;;13.36;59.67;101305.13;12157147;19;20033;-91
2022/11/05 15:48:18;;;;;;;4.63;2.55;;;15.10;56.60;;;13.57;59.71;101353.75;12152585;19;20026;-90
2022/11/05 15:52:30;;;;;;;5.07;2.40;;;15.00;56.40;;;13.74;59.64;101384.25;12149963;19;20023;-91
2022/11/05 15:56:49;;;;;;;3.55;2.45;;;14.90;56.70;;;13.61;59.52;101378.03;12153467;19;20948;-91
2022/11/05 16:00:51;;;;;;;4.40;2.75;;;14.80;56.70;;;13.59;59.80;101388.63;12156682;19;20011;-91
2022/11/05 16:04:52;;;;;;;5.80;3.40;;;14.70;56.50;;;13.55;59.57;101402.84;12156076;19;20317;-91
2022/11/05 16:08:54;;;;;;;7.20;4.05;;;14.90;56.60;;;13.20;59.51;101353.19;12152053;19;20048;-90
2022/11/05 16:12:55;;;;;;;6.75;5.30;;;14.50;56.70;;;13.51;59.64;101424.97;12144544;19;20947;-90
2022/11/05 16:17:08;;;;;;;6.20;4.75;;;14.40;56.60;;;12.96;59.51;101341.44;12146632;19;20031;-89
2022/11/05 16:21:17;;;;;;;6.65;5.85;;;14.40;56.90;;;13.17;59.60;101397.94;12152660;19;20570;-90
2022/11/05 16:25:37;;;;;;;6.28;5.32;;;14.30;56.90;;;12.82;59.60;101352.69;12152399;19;20022;-91
2022/11/05 16:29:50;;;;;;;5.57;4.95;;;14.20;56.90;;;12.95;59.52;101392.19;12149502;19;20464;-90
2022/11/05 16:33:52;;;;;;;7.85;4.85;;;14.10;57.10;;;12.81;59.66;101379.84;12151959;19;20011;-90
2022/11/05 16:37:54;;;;;;;6.72;4.97;;;14.00;57.10;;;12.62;59.64;101361.63;12140748;19;20021;-90
2022/11/05 16:41:56;;;;;;;8.07;5.35;;;14.10;57.20;;;12.91;59.71;101417.72;12155273;19;20010;-90
2022/11/05 16:46:00;;;;;;;6.38;5.38;;;13.90;57.10;;;12.50;59.58;101368.38;12156150;19;20923;-91
2022/11/05 16:50:21;;;;;;;8.98;5.65;;;13.80;57.00;;;12.70;59.44;101421.50;12152607;19;20699;-91
2022/11/05 16:54:23;;;;;;;4.47;4.00;;;13.80;56.90;;;12.80;59.64;101447.13;12152262;19;20027;-91
2022/11/05 16:58:25;;;;;;;4.57;4.18;;;13.70;57.00;;;12.69;59.45;101448.63;12154035;19;20125;-91
2022/11/05 17:02:27;;;;;;;3.58;3.28;;;13.60;57.10;;;12.23;59.56;101383.72;12172018;19;20276;-91
2022/11/05 17:06:28;;;;;;;2.58;2.38;;;13.50;57.30;;;12.31;59.80;101410.41;12172150;19;20018;-90
2022/11/05 17:10:30;;;;;;;2.92;2.72;;;13.50;57.30;;;12.48;59.58;101450.59;12175957;19;21057;-88
2022/11/05 17:14:32;;;;;;;4.47;3.30;;;13.50;57.30;;;12.43;59.62;101455.22;12170558;19;20022;-90
2022/11/05 17:18:33;;;;;;;6.85;3.08;;;13.40;57.30;;;12.39;59.77;101468.47;12169970;19;20018;-90
2022/11/05 17:22:35;;;;;;;3.65;3.35;;;13.30;57.40;;;12.05;59.77;101424.81;12170614;19;20014;-90
2022/11/05 17:26:37;;;;;;;6.25;4.75;;;13.50;57.40;;;12.36;59.69;101488.72;12168035;19;20863;-90
2022/11/05 17:30:39;;;;;;;5.95;5.05;;;13.30;57.30;;;12.09;59.66;101467.38;12179224;19;20385;-88
2022/11/05 17:34:40;;;;;;;6.28;4.85;;;13.10;57.30;;;12.08;59.83;101484.03;12162406;19;20011;-90
2022/11/05 17:38:42;;;;;;;15.90;9.38;;;13.10;57.40;;;12.15;59.65;101501.09;12163963;19;20010;-90
2022/11/05 17:42:45;;;;;;;13.43;8.23;;;13.00;57.40;;;11.93;59.64;101481.22;12170388;19;20123;-89
2022/11/05 17:46:47;;;;;;;8.88;6.38;;;13.00;57.40;;;12.03;59.59;101501.72;12170863;19;20868;-89
2022/11/05 17:50:50;;;;;;;11.85;7.43;;;12.90;57.40;;;12.00;59.75;101494.88;12158807;19;20395;-89
2022/11/05 17:54:51;;;;;;;8.50;5.90;;;12.90;57.20;;;11.51;59.61;101440.47;12164717;19;20041;-91
2022/11/05 17:58:54;;;;;;;8.63;5.93;;;12.80;57.10;;;11.78;59.43;101510.72;12166561;19;20372;-90
2022/11/05 18:02:59;;;;;;;8.30;6.00;;;12.70;57.10;;;11.73;59.70;101517.94;12168952;19;20630;-89
2022/11/05 18:07:00;;;;;;;12.30;6.80;;;12.60;57.10;;;11.68;59.46;101523.38;12165719;19;20015;-90
2022/11/05 18:11:02;;;;;;;10.88;7.03;;;12.60;57.20;;;11.34;59.52;101486.63;12164334;19;20375;-91
2022/11/05 18:15:05;;;;;;;13.10;7.80;;;12.80;57.30;;;11.28;59.48;101486.00;12164500;19;20121;-90